Time;durP1;ratioP1;P1;durP2;ratioP2;P2;SDS_P1;SDS_P2;PMS_P1;PMS_P2;Temp;Humidity;BMP_temperature;BMP_pressure;BME280_temperature;BME280_humidity;BME280_pressure;Samples;Min_cycle;Max_cycle;Signal;HPM_P1;HPM_P2
2022/05/07 00:00:26;;;;;;;33.33;13.57;;;;;;;12.15;56.00;101480.09;4955996;28;20014;-79
2022/05/07 00:02:51;;;;;;;34.85;12.35;;;;;;;12.18;56.09;101478.06;4956436;28;20019;-79
2022/05/07 00:05:19;;;;;;;33.72;13.40;;;;;;;12.19;56.20;101481.63;4970832;28;20406;-78
2022/05/07 00:07:45;;;;;;;36.17;12.40;;;;;;;12.14;56.02;101478.41;4944984;29;20023;-79
2022/05/07 00:10:11;;;;;;;32.75;11.93;;;;;;;12.14;56.19;101489.19;4955438;28;20114;-79
2022/05/07 00:12:36;;;;;;;27.02;11.93;;;;;;;12.13;56.83;101487.47;4955858;28;20058;-79
2022/05/07 00:15:02;;;;;;;37.45;12.77;;;;;;;12.16;56.55;101487.25;4955834;28;20050;-79
2022/05/07 00:20:12;;;;;;;31.52;11.88;;;;;;;12.17;56.82;101489.81;4956201;29;20418;-80
2022/05/07 00:22:37;;;;;;;38.40;11.93;;;;;;;12.20;56.18;101483.34;4956293;28;20039;-79
2022/05/07 00:25:03;;;;;;;24.95;12.20;;;;;;;12.17;56.54;101483.56;4955816;29;20098;-80
2022/05/07 00:27:28;;;;;;;28.00;12.38;;;;;;;12.16;56.37;101477.31;4955872;28;20035;-79
2022/05/07 00:29:54;;;;;;;20.83;11.70;;;;;;;12.16;55.90;101489.94;4955885;29;20102;-79
2022/05/07 00:32:22;;;;;;;29.33;11.95;;;;;;;12.15;56.48;101488.19;4949666;28;20036;-79
2022/05/07 00:34:47;;;;;;;29.77;12.45;;;;;;;12.08;56.24;101474.31;4953461;28;20083;-79
2022/05/07 00:37:13;;;;;;;34.58;12.30;;;;;;;12.13;56.74;101487.47;4969568;28;20066;-79
2022/05/07 00:39:38;;;;;;;29.70;12.93;;;;;;;12.16;56.05;101487.25;4957063;28;20090;-80
2022/05/07 00:42:06;;;;;;;31.20;12.43;;;;;;;12.10;56.02;101498.47;4951876;28;20500;-79
2022/05/07 00:44:33;;;;;;;32.92;13.70;;;;;;;12.04;56.13;101471.97;4937289;28;20102;-79
2022/05/07 00:47:30;;;;;;;32.22;12.57;;;;;;;12.02;56.90;101485.56;4948811;28;20043;-79
2022/05/07 00:52:42;;;;;;;20.17;11.85;;;;;;;11.99;56.57;101486.63;4961842;29;20119;-79
2022/05/07 00:55:09;;;;;;;24.10;12.07;;;;;;;11.96;57.05;101476.09;4958111;28;20027;-79
2022/05/07 00:57:35;;;;;;;30.88;12.43;;;;;;;11.95;56.98;101469.00;4955269;28;20043;-79
2022/05/07 01:00:03;;;;;;;26.65;11.85;;;;;;;11.98;57.03;101476.84;4956318;28;20038;-79
2022/05/07 01:02:28;;;;;;;27.55;12.40;;;;;;;11.93;57.23;101476.31;4939011;28;20031;-79
2022/05/07 01:04:54;;;;;;;24.33;12.43;;;;;;;11.92;57.47;101476.44;4943012;29;20377;-79
2022/05/07 01:07:20;;;;;;;23.95;12.00;;;;;;;11.83;57.72;101474.41;4944136;28;20032;-81
2022/05/07 01:09:46;;;;;;;23.40;12.95;;;;;;;11.89;57.82;101463.19;4944381;29;20060;-79
2022/05/07 01:12:12;;;;;;;25.45;12.15;;;;;;;11.88;58.02;101462.31;4953492;28;20031;-79
2022/05/07 01:14:37;;;;;;;29.90;11.45;;;;;;;11.87;57.82;101460.59;4969510;28;20035;-79
2022/05/07 01:17:06;;;;;;;34.58;12.00;;;;;;;11.84;57.54;101458.13;4951680;28;20027;-79
2022/05/07 01:19:31;;;;;;;32.85;12.48;;;;;;;11.86;57.44;101452.63;4935688;29;20035;-79
2022/05/07 01:21:57;;;;;;;36.28;13.10;;;;;;;11.85;57.54;101456.28;4935788;29;20016;-81
2022/05/07 01:24:22;;;;;;;26.50;12.27;;;;;;;11.78;58.00;101466.66;4936205;29;20041;-79
2022/05/07 01:26:48;;;;;;;25.73;11.98;;;;;;;11.78;57.88;101469.34;4952733;29;20030;-81
2022/05/07 01:29:13;;;;;;;35.45;12.32;;;;;;;11.79;57.94;101465.69;4955091;28;20024;-81
2022/05/07 01:31:39;;;;;;;25.02;12.85;;;;;;;11.79;57.87;101463.00;4955444;28;20482;-81
2022/05/07 01:34:05;;;;;;;30.52;13.07;;;;;;;11.77;58.31;101470.31;4954791;28;20163;-81
2022/05/07 01:36:30;;;;;;;27.00;10.57;;;;;;;11.67;58.04;101453.06;4954851;28;20034;-80
2022/05/07 01:38:56;;;;;;;25.45;13.27;;;;;;;11.73;58.35;101458.06;4955505;29;20027;-79
2022/05/07 01:41:21;;;;;;;32.40;13.18;;;;;;;11.77;58.46;101473.00;4954519;28;20023;-80
2022/05/07 01:43:46;;;;;;;29.77;13.05;;;;;;;11.68;58.19;101459.34;4948347;28;20054;-80
2022/05/07 01:48:56;;;;;;;27.02;14.98;;;;;;;11.72;58.75;101460.84;4936131;29;20182;-79
2022/05/07 01:51:21;;;;;;;26.38;13.40;;;;;;;11.72;58.86;101461.72;4935799;29;20449;-80
2022/05/07 01:53:47;;;;;;;41.05;14.90;;;;;;;11.78;58.81;101465.78;4936675;29;20038;-81
2022/05/07 01:56:12;;;;;;;29.67;16.67;;;;;;;11.73;59.00;101458.06;4935641;29;20055;-79
2022/05/07 01:58:38;;;;;;;31.58;16.73;;;;;;;11.81;58.77;101461.03;4935699;29;20028;-79
2022/05/07 02:01:04;;;;;;;35.38;15.70;;;;;;;11.80;58.17;101447.69;4935134;29;20027;-79
2022/05/07 02:03:30;;;;;;;30.95;15.73;;;;;;;11.80;58.32;101455.78;4937526;29;20043;-79
2022/05/07 02:05:56;;;;;;;32.95;16.48;;;;;;;11.74;59.06;101453.53;4954368;29;20038;-79
2022/05/07 02:08:21;;;;;;;38.42;16.40;;;;;;;11.68;59.30;101449.38;4954988;28;20024;-80
2022/05/07 02:10:47;;;;;;;28.73;16.15;;;;;;;11.61;58.97;101460.75;4954531;28;20028;-80
2022/05/07 02:13:12;;;;;;;29.75;14.75;;;;;;;11.64;59.35;101456.00;4972675;28;20024;-80
2022/05/07 02:15:37;;;;;;;32.42;15.32;;;;;;;11.54;59.33;101457.63;4964492;28;20031;-80
2022/05/07 02:18:03;;;;;;;34.60;14.30;;;;;;;11.53;59.02;101455.88;4958891;28;20031;-81
2022/05/07 02:20:28;;;;;;;35.90;14.98;;;;;;;11.59;59.05;101462.69;4957879;29;20023;-81
2022/05/07 02:22:55;;;;;;;29.80;14.35;;;;;;;11.60;58.97;101464.41;4958235;28;20389;-80
2022/05/07 02:25:25;;;;;;;33.22;13.50;;;;;;;11.61;59.30;101468.81;4958190;28;20031;-81
2022/05/07 02:27:50;;;;;;;39.05;12.68;;;;;;;11.64;58.89;101469.47;4957875;28;20027;-81
2022/05/07 02:30:19;;;;;;;27.33;13.55;;;;;;;11.61;58.88;101464.31;4957907;28;20023;-81
2022/05/07 02:32:47;;;;;;;37.20;13.65;;;;;;;11.57;58.91;101462.78;4957325;28;20023;-82
2022/05/07 02:35:13;;;;;;;34.75;13.57;;;;;;;11.50;59.08;101445.34;4957624;28;20110;-80
2022/05/07 02:37:38;;;;;;;30.55;13.48;;;;;;;11.49;58.90;101462.50;4956431;29;20450;-80
2022/05/07 02:40:05;;;;;;;27.77;13.27;;;;;;;11.45;58.61;101459.16;4957820;28;20015;-81
2022/05/07 02:42:33;;;;;;;36.10;14.27;;;;;;;11.50;59.34;101466.88;4957868;28;20051;-80
2022/05/07 02:44:59;;;;;;;35.10;12.50;;;;;;;11.42;59.46;101453.13;4957488;28;20533;-80
2022/05/07 02:47:25;;;;;;;33.22;14.57;;;;;;;11.42;59.33;101458.50;4957625;28;20019;-81
2022/05/07 02:49:51;;;;;;;37.45;13.02;;;;;;;11.45;59.68;101459.16;4957619;28;20095;-80
2022/05/07 02:52:17;;;;;;;40.72;15.35;;;;;;;11.47;59.48;101465.28;4957794;28;20065;-81
2022/05/07 02:54:42;;;;;;;29.17;14.38;;;;;;;11.38;59.51;101457.00;4957422;28;20039;-81
2022/05/07 02:57:08;;;;;;;32.67;14.95;;;;;;;11.41;59.77;101463.03;4956667;28;20082;-76
2022/05/07 02:59:33;;;;;;;34.03;14.68;;;;;;;11.41;59.61;101467.56;4956914;28;20081;-77
2022/05/07 03:01:59;;;;;;;23.48;14.18;;;;;;;11.36;59.05;101465.19;4956444;28;20050;-76
2022/05/07 03:04:24;;;;;;;45.53;19.90;;;;;;;11.33;59.77;101468.13;4956406;28;20027;-78
2022/05/07 03:06:50;;;;;;;33.17;16.02;;;;;;;11.35;59.75;101470.69;4956642;28;20120;-77
2022/05/07 03:09:15;;;;;;;35.15;14.55;;;;;;;11.42;59.77;101463.91;4956192;29;20035;-77
2022/05/07 03:11:41;;;;;;;34.30;15.98;;;;;;;11.47;59.45;101467.09;4956207;28;20058;-78
2022/05/07 03:14:06;;;;;;;33.72;16.17;;;;;;;11.53;59.30;101466.66;4956082;28;20062;-78
2022/05/07 03:16:34;;;;;;;31.90;15.30;;;;;;;11.55;59.18;101459.34;4956155;29;20031;-77
2022/05/07 03:18:59;;;;;;;39.83;15.98;;;;;;;11.53;58.82;101455.88;4956176;28;20035;-76
2022/05/07 03:21:24;;;;;;;28.65;14.65;;;;;;;11.54;58.87;101459.44;4956234;28;20054;-78
2022/05/07 03:23:50;;;;;;;32.67;16.50;;;;;;;11.54;59.84;101449.53;4955634;28;20043;-77
2022/05/07 03:26:17;;;;;;;29.90;15.57;;;;;;;11.54;59.77;101452.25;4955151;28;20433;-76
2022/05/07 03:28:42;;;;;;;35.25;16.00;;;;;;;11.54;60.09;101446.84;4955704;28;20035;-78
2022/05/07 03:31:08;;;;;;;39.58;16.25;;;;;;;11.56;60.58;101455.66;4955674;29;20035;-77
2022/05/07 03:33:33;;;;;;;31.17;15.23;;;;;;;11.63;60.57;101462.34;4955826;29;20045;-79
2022/05/07 03:35:59;;;;;;;33.17;14.57;;;;;;;11.66;61.15;101451.34;4955837;29;20031;-76
2022/05/07 03:38:24;;;;;;;34.72;16.58;;;;;;;11.71;61.25;101459.97;4955897;29;20030;-77
2022/05/07 03:40:50;;;;;;;26.20;14.30;;;;;;;11.68;61.52;101449.38;4955490;29;20031;-79
2022/05/07 03:43:16;;;;;;;35.78;15.85;;;;;;;11.74;61.98;101458.91;4955919;28;20035;-80
2022/05/07 03:45:43;;;;;;;38.67;16.42;;;;;;;11.76;62.05;101456.97;4955734;28;20046;-77
2022/05/07 03:48:09;;;;;;;35.80;17.25;;;;;;;11.75;62.45;101456.09;4958711;28;20113;-75
2022/05/07 03:50:35;;;;;;;36.83;17.33;;;;;;;11.69;62.28;101451.13;4992553;28;20035;-77
2022/05/07 03:55:44;;;;;;;51.70;16.05;;;;;;;11.77;62.97;101456.00;4955960;29;20050;-79
2022/05/07 03:58:17;;;;;;;39.08;16.35;;;;;;;11.82;62.89;101456.50;4955679;28;20027;-80
2022/05/07 04:00:43;;;;;;;;;;;;;;;11.82;63.05;101456.50;4956333;28;20019;-77
2022/05/07 04:03:09;;;;;;;34.63;18.02;;;;;;;11.61;62.28;101456.22;4955961;28;19925;-81
2022/05/07 04:05:34;;;;;;;37.72;18.80;;;;;;;11.70;61.86;101450.19;4955670;28;20034;-77
2022/05/07 04:08:00;;;;;;;38.83;16.35;;;;;;;11.63;62.13;101456.97;4955074;29;20035;-79
2022/05/07 04:10:25;;;;;;;33.75;16.83;;;;;;;11.74;61.27;101446.28;4954933;29;20055;-76
2022/05/07 04:12:51;;;;;;;35.80;17.20;;;;;;;11.90;61.49;101454.97;4955333;29;20027;-78
2022/05/07 04:15:20;;;;;;;45.97;18.65;;;;;;;11.95;61.21;101460.91;4955004;29;20027;-79
2022/05/07 04:17:47;;;;;;;56.28;19.02;;;;;;;11.97;60.79;101450.84;4953618;29;20486;-77
2022/05/07 04:20:13;;;;;;;35.55;18.95;;;;;;;11.99;60.21;101461.50;4955102;29;20020;-79
2022/05/07 04:22:38;;;;;;;35.50;17.77;;;;;;;12.07;60.18;101460.97;4954746;29;20066;-78
2022/05/07 04:25:09;;;;;;;47.33;18.50;;;;;;;12.09;60.06;101459.00;4955254;29;20035;-78
2022/05/07 04:27:35;;;;;;;55.88;18.25;;;;;;;12.20;59.89;101477.94;4953462;29;20027;-79
2022/05/07 04:30:02;;;;;;;51.53;18.98;;;;;;;12.27;59.89;101465.72;4954543;28;20098;-79
2022/05/07 04:32:28;;;;;;;41.45;18.25;;;;;;;12.26;59.19;101475.63;4954741;28;20031;-79
2022/05/07 04:34:57;;;;;;;47.30;18.63;;;;;;;12.38;59.55;101471.19;4954339;28;20031;-78
2022/05/07 04:37:26;;;;;;;39.97;17.77;;;;;;;12.38;58.86;101479.28;4954756;28;20039;-77
2022/05/07 04:39:52;;;;;;;46.00;19.48;;;;;;;12.40;58.71;101480.00;4954643;29;20035;-77
2022/05/07 04:42:17;;;;;;;45.83;19.40;;;;;;;12.52;58.64;101476.38;4954670;28;20035;-79
2022/05/07 04:44:43;;;;;;;48.00;20.67;;;;;;;12.65;58.36;101473.59;4954480;29;20463;-77
2022/05/07 04:47:10;;;;;;;52.47;21.55;;;;;;;12.76;57.81;101476.34;4954371;29;20027;-76
2022/05/07 04:49:36;;;;;;;58.55;21.98;;;;;;;12.78;58.24;101475.22;4954544;28;20397;-77
2022/05/07 04:52:02;;;;;;;40.78;21.50;;;;;;;12.78;58.52;101469.84;4954631;28;20031;-78
2022/05/07 04:54:28;;;;;;;47.10;20.75;;;;;;;12.91;58.46;101489.50;4954963;28;20125;-77
2022/05/07 04:56:54;;;;;;;36.83;19.20;;;;;;;13.00;58.08;101480.69;4955084;28;20087;-78
2022/05/07 04:59:20;;;;;;;42.05;19.98;;;;;;;13.08;57.86;101481.00;4955015;28;20031;-79
2022/05/07 05:01:46;;;;;;;56.08;19.35;;;;;;;13.14;57.51;101482.38;4954802;28;20548;-79
2022/05/07 05:04:12;;;;;;;36.92;19.40;;;;;;;13.24;57.38;101485.22;4954883;29;20027;-77
2022/05/07 05:06:39;;;;;;;43.42;19.27;;;;;;;13.27;56.87;101482.25;4954577;29;20121;-77
2022/05/07 05:09:06;;;;;;;39.83;19.38;;;;;;;13.36;57.15;101486.94;4954725;28;20102;-78
2022/05/07 05:11:32;;;;;;;59.30;21.30;;;;;;;13.42;56.74;101478.34;4956483;28;20038;-89
2022/05/07 05:13:57;;;;;;;37.53;20.38;;;;;;;13.55;56.42;101481.75;4957140;28;20031;-88
2022/05/07 05:16:23;;;;;;;44.38;21.00;;;;;;;13.61;56.62;101481.28;4971259;28;20034;-84
2022/05/07 05:18:49;;;;;;;50.17;20.25;;;;;;;13.63;56.94;101468.50;4955879;29;20034;-87
2022/05/07 05:21:15;;;;;;;51.75;20.77;;;;;;;13.75;56.61;101470.22;4956750;28;20083;-81
2022/05/07 05:23:41;;;;;;;34.83;20.35;;;;;;;13.90;56.28;101477.06;4954807;28;20038;-81
2022/05/07 05:26:08;;;;;;;46.53;22.20;;;;;;;14.03;55.96;101476.94;4959852;29;20035;-80
2022/05/07 05:28:35;;;;;;;57.22;23.65;;;;;;;14.04;55.92;101479.50;4977487;28;20034;-80
2022/05/07 05:31:03;;;;;;;43.85;21.27;;;;;;;14.10;55.77;101479.00;4956046;29;20054;-81
2022/05/07 05:33:28;;;;;;;45.00;21.23;;;;;;;14.23;55.63;101484.25;4954988;29;20238;-84
2022/05/07 05:35:54;;;;;;;48.28;21.30;;;;;;;14.36;55.34;101478.72;4954801;29;20495;-80
2022/05/07 05:38:19;;;;;;;37.83;20.00;;;;;;;14.47;55.27;101486.78;4954708;29;21253;-79
2022/05/07 05:40:45;;;;;;;40.33;20.17;;;;;;;14.51;55.65;101485.53;4954318;29;20031;-79
2022/05/07 05:43:11;;;;;;;43.63;19.65;;;;;;;14.62;55.66;101494.47;4954332;29;20039;-79
2022/05/07 05:45:37;;;;;;;54.70;20.58;;;;;;;14.75;55.38;101494.28;4954483;29;20114;-78
2022/05/07 05:48:04;;;;;;;37.72;18.83;;;;;;;14.85;55.34;101492.53;4953865;29;20117;-77
2022/05/07 05:50:30;;;;;;;47.90;19.23;;;;;;;14.97;55.37;101496.91;4955822;28;20038;-77
2022/05/07 05:52:59;;;;;;;33.58;18.83;;;;;;;15.12;55.28;101495.56;4956442;29;20125;-77
2022/05/07 05:55:24;;;;;;;35.72;18.20;;;;;;;15.22;54.38;101501.91;4957893;28;20034;-79
2022/05/07 05:57:50;;;;;;;37.60;19.15;;;;;;;15.35;54.15;101508.97;4957903;28;20035;-78
2022/05/07 06:00:17;;;;;;;42.97;18.40;;;;;;;15.41;53.95;101500.31;4956349;29;20035;-80
2022/05/07 06:02:44;;;;;;;33.58;17.50;;;;;;;15.41;53.63;101511.16;4957579;28;20539;-79
2022/05/07 06:05:13;;;;;;;32.30;16.02;;;;;;;15.52;53.77;101519.22;4957948;28;20034;-79
2022/05/07 06:07:39;;;;;;;30.55;17.88;;;;;;;15.64;53.78;101516.28;4957455;29;20182;-77
2022/05/07 06:10:05;;;;;;;39.58;19.95;;;;;;;15.67;53.15;101504.31;4957845;29;20035;-78
2022/05/07 06:12:31;;;;;;;33.95;17.15;;;;;;;15.76;52.77;101500.78;4958313;29;20045;-81
2022/05/07 06:14:57;;;;;;;39.65;18.38;;;;;;;15.90;52.24;101524.81;4957560;29;20497;-80
2022/05/07 06:17:23;;;;;;;39.70;19.65;;;;;;;15.96;51.74;101523.44;4957924;29;20114;-80
2022/05/07 06:19:49;;;;;;;44.08;17.65;;;;;;;16.03;51.67;101525.44;4958087;28;20037;-80
2022/05/07 06:22:14;;;;;;;17.58;10.57;;;;;;;15.79;53.98;101530.34;4957739;28;20394;-79
2022/05/07 06:27:33;;;;;;;24.52;11.82;;;;;;;15.97;55.34;101528.69;4939778;29;20039;-79
2022/05/07 06:30:04;;;;;;;32.28;10.15;;;;;;;16.06;54.83;101519.72;4962139;28;20513;-77
2022/05/07 06:32:34;;;;;;;21.77;9.27;;;;;;;16.05;55.27;101518.03;4953185;29;20054;-82
2022/05/07 06:35:03;;;;;;;23.65;9.80;;;;;;;16.17;55.26;101522.34;4957505;28;20110;-81
2022/05/07 06:37:30;;;;;;;26.13;7.88;;;;;;;16.27;53.35;101516.91;4957789;29;20043;-84
2022/05/07 06:39:56;;;;;;;17.30;7.75;;;;;;;16.32;53.09;101528.25;4958483;28;20482;-83
2022/05/07 06:42:22;;;;;;;16.42;8.50;;;;;;;16.37;52.46;101542.25;4958254;28;20034;-84
2022/05/07 06:44:47;;;;;;;25.63;8.70;;;;;;;16.45;52.97;101536.97;4960470;28;20118;-84
2022/05/07 06:47:13;;;;;;;33.15;9.27;;;;;;;16.44;52.96;101520.81;4957234;29;20035;-84
2022/05/07 06:49:38;;;;;;;24.40;7.55;;;;;;;16.33;52.23;101524.50;4966106;28;20035;-85
2022/05/07 06:52:04;;;;;;;28.80;6.50;;;;;;;16.45;50.48;101530.69;4967746;28;20035;-79
2022/05/07 06:54:29;;;;;;;36.45;8.18;;;;;;;16.51;50.66;101530.13;4964544;28;20027;-80
2022/05/07 06:56:55;;;;;;;17.00;6.15;;;;;;;16.53;48.12;101525.41;4961180;28;20212;-81
2022/05/07 06:59:21;;;;;;;25.15;5.75;;;;;;;16.44;48.12;101534.41;4957541;28;20041;-80
2022/05/07 07:01:47;;;;;;;16.63;5.70;;;;;;;16.50;47.89;101529.25;4955337;28;20386;-77
2022/05/07 07:04:13;;;;;;;16.90;6.45;;;;;;;16.65;49.49;101532.44;4958339;28;20042;-79
2022/05/07 07:06:39;;;;;;;15.80;6.72;;;;;;;16.59;51.97;101533.88;4973752;28;20123;-79
2022/05/07 07:09:04;;;;;;;13.98;6.00;;;;;;;16.71;51.68;101529.16;4963143;28;20094;-78
2022/05/07 07:11:31;;;;;;;16.45;6.05;;;;;;;16.88;50.61;101535.75;4956049;28;20114;-78
2022/05/07 07:13:56;;;;;;;17.27;7.40;;;;;;;17.01;51.90;101531.72;4954531;29;20035;-77
2022/05/07 07:16:22;;;;;;;15.63;4.50;;;;;;;17.02;45.29;101524.44;4955586;28;20094;-77
2022/05/07 07:18:48;;;;;;;3.47;2.47;;;;;;;17.09;40.01;101521.03;4955350;28;20085;-77
2022/05/07 07:21:14;;;;;;;9.75;3.05;;;;;;;17.04;38.52;101523.28;4955540;28;20043;-77
2022/05/07 07:23:39;;;;;;;15.73;3.05;;;;;;;17.18;38.62;101531.03;4955684;28;20102;-78
2022/05/07 07:26:05;;;;;;;16.85;2.30;;;;;;;17.23;36.82;101523.28;4955204;28;20031;-78
2022/05/07 07:28:31;;;;;;;10.43;2.92;;;;;;;17.22;36.50;101532.41;4953895;29;20086;-78
2022/05/07 07:30:57;;;;;;;8.98;2.53;;;;;;;17.23;35.48;101517.84;4955424;28;20038;-78
2022/05/07 07:33:23;;;;;;;6.82;1.85;;;;;;;17.29;36.45;101524.53;4969948;28;20042;-77
2022/05/07 07:35:50;;;;;;;11.43;2.53;;;;;;;17.34;35.84;101531.25;4955435;28;20110;-78
2022/05/07 07:38:15;;;;;;;6.97;2.13;;;;;;;17.43;35.58;101524.94;4955647;28;20064;-77
2022/05/07 07:40:43;;;;;;;11.05;2.28;;;;;;;17.44;35.80;101531.22;4955387;28;20031;-79
2022/05/07 07:43:10;;;;;;;10.82;3.25;;;;;;;17.55;35.37;101527.53;4955374;28;20055;-79
2022/05/07 07:48:20;;;;;;;4.68;1.85;;;;;;;17.73;33.74;101536.63;4955285;29;20051;-77
2022/05/07 07:50:48;;;;;;;6.00;2.75;;;;;;;17.70;32.47;101542.38;4955032;28;20038;-77
2022/05/07 07:53:14;;;;;;;11.40;2.70;;;;;;;17.76;32.92;101560.81;4955210;28;20214;-77
2022/05/07 07:55:39;;;;;;;19.27;3.17;;;;;;;17.84;32.23;101555.47;4954556;28;20130;-77
2022/05/07 07:58:07;;;;;;;13.63;1.83;;;;;;;17.90;31.73;101550.31;4954930;28;20096;-77
2022/05/07 08:00:38;;;;;;;4.03;2.45;;;;;;;17.96;32.18;101548.84;4954598;28;20027;-77
2022/05/07 08:03:10;;;;;;;19.77;2.78;;;;;;;17.80;33.47;101556.78;4953881;29;20058;-77
2022/05/07 08:05:37;;;;;;;8.02;2.83;;;;;;;17.74;34.42;101566.41;4954805;28;20039;-78
2022/05/07 08:13:37;;;;;;;10.45;3.38;;;;;;;17.77;38.13;101554.34;4954026;28;20386;-78
2022/05/07 08:16:03;;;;;;;10.15;3.25;;;;;;;17.86;38.68;101564.34;4954489;28;20035;-78
2022/05/07 08:18:29;;;;;;;6.00;3.00;;;;;;;17.89;38.71;101562.19;4954364;28;20458;-78
2022/05/07 08:20:57;;;;;;;6.10;2.85;;;;;;;18.07;37.88;101555.97;4954473;28;20023;-79
2022/05/07 08:23:24;;;;;;;6.45;2.97;;;;;;;18.18;36.50;101559.34;4954636;28;20038;-79
2022/05/07 08:25:50;;;;;;;11.93;2.65;;;;;;;18.28;36.34;101556.56;4954733;28;20470;-79
2022/05/07 08:28:15;;;;;;;7.28;3.15;;;;;;;18.42;36.17;101551.47;4954460;28;20554;-79
2022/05/07 08:30:42;;;;;;;7.78;3.63;;;;;;;18.59;37.32;101563.41;4954288;28;20351;-77
2022/05/07 08:33:07;;;;;;;15.77;3.38;;;;;;;18.62;38.48;101554.09;4954274;28;20034;-77
2022/05/07 08:35:33;;;;;;;10.48;3.25;;;;;;;18.68;38.07;101545.31;4954200;28;20035;-79
2022/05/07 08:37:58;;;;;;;11.82;3.38;;;;;;;18.66;38.30;101541.84;4954442;28;20027;-78
2022/05/07 08:40:26;;;;;;;13.25;3.90;;;;;;;18.80;37.82;101544.06;4954516;28;20024;-77
2022/05/07 08:42:51;;;;;;;11.82;3.28;;;;;;;18.67;36.62;101566.25;4962502;28;20054;-77
2022/05/07 08:45:16;;;;;;;12.20;3.30;;;;;;;18.70;35.14;101559.63;4984528;28;20031;-77
2022/05/07 08:47:43;;;;;;;10.13;5.05;;;;;;;18.68;35.29;101550.75;4955203;28;20114;-78
2022/05/07 08:50:11;;;;;;;14.35;3.90;;;;;;;18.79;36.19;101559.56;4954668;28;20023;-78
2022/05/07 08:52:41;;;;;;;6.85;3.28;;;;;;;18.80;36.71;101563.16;4954184;28;20027;-77
2022/05/07 08:55:10;;;;;;;14.07;2.97;;;;;;;18.76;35.32;101559.88;4954419;28;20031;-78
2022/05/07 08:57:36;;;;;;;17.13;3.63;;;;;;;18.90;36.20;101562.03;4954290;28;20059;-78
2022/05/07 09:00:02;;;;;;;22.65;3.05;;;;;;;19.07;35.41;101562.19;4954606;28;20035;-78
2022/05/07 09:02:36;;;;;;;13.95;2.90;;;;;;;18.97;34.72;101559.56;4954292;28;20125;-76
2022/05/07 09:05:01;;;;;;;21.88;10.93;;;;;;;18.98;35.34;101566.72;4954683;28;20034;-79
2022/05/07 09:07:27;;;;;;;6.40;2.25;;;;;;;18.95;34.49;101575.22;4954405;28;20377;-78
2022/05/07 09:09:52;;;;;;;8.73;2.88;;;;;;;18.92;35.25;101559.19;4968752;28;20051;-79
2022/05/07 09:12:30;;;;;;;9.75;2.50;;;;;;;18.96;37.86;101558.69;4954069;28;20054;-78
2022/05/07 09:15:04;;;;;;;16.20;3.35;;;;;;;19.17;38.27;101563.84;4954399;28;20031;-77
2022/05/07 09:17:30;;;;;;;9.60;3.10;;;;;;;19.05;37.52;101545.97;4954021;28;20019;-77
2022/05/07 09:19:55;;;;;;;11.48;2.58;;;;;;;18.90;36.36;101558.44;4953937;28;20497;-77
2022/05/07 09:22:21;;;;;;;10.00;2.75;;;;;;;18.83;36.71;101562.84;4954239;28;20076;-78
2022/05/07 09:24:55;;;;;;;8.15;2.42;;;;;;;18.69;36.84;101547.00;4954859;28;20461;-78
2022/05/07 09:27:24;;;;;;;11.57;3.35;;;;;;;18.66;36.69;101552.75;4958274;28;20458;-77
2022/05/07 09:30:02;;;;;;;6.63;2.75;;;;;;;18.75;37.27;101563.59;4958083;28;20027;-77
2022/05/07 09:32:38;;;;;;;15.68;2.75;;;;;;;18.84;38.49;101562.66;4958100;28;20038;-77
2022/05/07 09:38:00;;;;;;;9.27;2.97;;;;;;;19.17;38.56;101563.84;4958536;29;20098;-78
2022/05/07 09:40:26;;;;;;;7.43;2.83;;;;;;;19.21;36.41;101554.31;4958201;28;20102;-78
2022/05/07 09:42:52;;;;;;;10.45;2.50;;;;;;;19.14;36.75;101563.28;4958154;28;20466;-77
2022/05/07 09:45:19;;;;;;;19.40;2.70;;;;;;;19.15;36.98;101560.38;4956865;29;20131;-78
2022/05/07 09:47:45;;;;;;;13.30;2.35;;;;;;;19.20;37.11;101566.25;4957912;28;20031;-78
2022/05/07 09:50:20;;;;;;;6.50;2.60;;;;;;;19.00;36.16;101560.09;4958078;28;20058;-76
2022/05/07 09:58:33;;;;;;;10.45;3.17;;;;;;;19.12;39.46;101547.06;4977110;29;20485;-77
2022/05/07 10:01:20;;;;;;;10.35;3.03;;;;;;;19.17;37.66;101546.63;4957925;28;20072;-78
2022/05/07 10:04:18;;;;;;;24.83;3.78;;;;;;;19.12;37.61;101552.53;4965547;29;20026;-77
2022/05/07 10:07:01;;;;;;;7.82;2.47;;;;;;;19.26;36.18;101562.91;4970405;28;20039;-78
2022/05/07 10:10:08;;;;;;;8.35;2.90;;;;;;;19.45;36.28;101559.97;4966817;29;20050;-78
2022/05/07 10:12:35;;;;;;;11.77;2.60;;;;;;;19.47;37.65;101555.25;4972292;29;20053;-79
2022/05/07 10:15:09;;;;;;;9.05;2.45;;;;;;;19.31;37.74;101548.75;4962882;28;20051;-79
2022/05/07 10:17:35;;;;;;;14.25;3.15;;;;;;;19.31;38.20;101548.75;4955834;29;20106;-79
2022/05/07 10:20:09;;;;;;;5.43;2.42;;;;;;;19.28;37.20;101546.34;4957121;28;20027;-79
2022/05/07 10:22:36;;;;;;;6.15;2.50;;;;;;;19.33;38.09;101547.59;4975376;28;20033;-79
2022/05/07 10:25:10;;;;;;;14.65;2.88;;;;;;;19.29;38.81;101543.47;4961864;28;20042;-79
2022/05/07 10:27:37;;;;;;;16.10;2.88;;;;;;;19.38;38.25;101536.22;4956995;28;20027;-78
2022/05/07 10:30:06;;;;;;;12.25;2.30;;;;;;;19.41;38.04;101539.50;4956722;28;20031;-78
2022/05/07 10:32:59;;;;;;;4.30;3.03;;;;;;;19.29;37.82;101535.28;4956958;28;20510;-80
2022/05/07 10:35:38;;;;;;;8.70;2.33;;;;;;;19.18;38.49;101521.91;4957546;28;20039;-80
2022/05/07 10:38:10;;;;;;;8.38;2.35;;;;;;;19.25;38.08;101530.31;4958231;28;20449;-83
2022/05/07 10:40:36;;;;;;;7.78;2.60;;;;;;;19.12;38.22;101536.16;4958500;28;20023;-85
2022/05/07 10:43:03;;;;;;;7.18;2.53;;;;;;;18.68;38.25;101537.13;4959198;28;20043;-84
2022/05/07 10:45:40;;;;;;;5.75;2.45;;;;;;;18.60;40.91;101537.91;4972703;28;20497;-84
2022/05/07 10:48:16;;;;;;;18.00;3.40;;;;;;;18.64;40.46;101543.91;4957851;28;20389;-80
2022/05/07 10:50:49;;;;;;;5.72;2.55;;;;;;;18.77;40.31;101538.94;4957877;28;20036;-77
2022/05/07 10:53:15;;;;;;;5.15;2.35;;;;;;;18.62;41.82;101529.59;4957316;28;20030;-81
2022/05/07 10:55:40;;;;;;;13.43;2.95;;;;;;;18.72;42.12;101530.34;4958395;28;20094;-82
2022/05/07 10:58:06;;;;;;;8.85;3.47;;;;;;;18.93;40.75;101534.47;4958389;28;20367;-82
2022/05/07 11:00:31;;;;;;;14.77;2.90;;;;;;;19.19;40.88;101526.34;4958063;28;20038;-81
2022/05/07 11:03:00;;;;;;;12.48;2.60;;;;;;;19.40;40.21;101526.00;4956903;29;20094;-81
2022/05/07 11:05:33;;;;;;;8.20;3.65;;;;;;;19.36;38.89;101519.13;4958098;28;20038;-84
2022/05/07 11:08:00;;;;;;;5.55;2.25;;;;;;;19.42;39.38;101518.50;4965288;28;20034;-81
2022/05/07 11:10:25;;;;;;;16.65;2.58;;;;;;;19.38;39.43;101520.69;4959305;28;20023;-85
2022/05/07 11:12:51;;;;;;;8.07;2.47;;;;;;;19.30;39.18;101509.72;4957673;28;20114;-82
2022/05/07 11:15:24;;;;;;;16.15;2.17;;;;;;;19.40;40.72;101520.56;4959338;28;20027;-86
2022/05/07 11:17:50;;;;;;;10.68;2.83;;;;;;;19.52;39.90;101514.66;4958610;28;20474;-88
2022/05/07 11:20:16;;;;;;;15.05;6.55;;;;;;;19.31;40.23;101508.72;4958081;28;20038;-86
2022/05/07 11:22:42;;;;;;;16.63;2.85;;;;;;;19.00;40.11;101508.28;4957900;28;20512;-86
2022/05/07 11:25:08;;;;;;;17.80;2.78;;;;;;;19.06;41.13;101520.44;4972143;28;20442;-82
2022/05/07 11:27:34;;;;;;;7.93;1.92;;;;;;;19.07;40.75;101521.28;4957470;29;20023;-86
2022/05/07 11:30:01;;;;;;;7.20;2.45;;;;;;;18.97;41.02;101515.94;4958144;29;20035;-80
2022/05/07 11:32:42;;;;;;;7.82;3.00;;;;;;;18.93;42.49;101522.69;4957175;29;20034;-85
2022/05/07 11:35:09;;;;;;;6.25;2.45;;;;;;;18.77;43.28;101511.66;4954272;29;20108;-83
2022/05/07 11:37:40;;;;;;;4.50;2.25;;;;;;;18.74;43.18;101522.88;4936964;29;20039;-82
2022/05/07 11:40:07;;;;;;;12.07;2.75;;;;;;;18.69;43.14;101520.59;4938063;29;20486;-79
2022/05/07 11:42:39;;;;;;;9.00;1.80;;;;;;;18.73;42.03;101522.03;4943721;29;20820;-86
2022/05/07 11:45:30;;;;;;;8.52;2.75;;;;;;;18.66;42.35;101520.91;4958710;28;20031;-85